Time;durP1;ratioP1;P1;durP2;ratioP2;P2;SDS_P1;SDS_P2;PMS_P1;PMS_P2;Temp;Humidity;BMP_temperature;BMP_pressure;BME280_temperature;BME280_humidity;BME280_pressure;Samples;Min_cycle;Max_cycle;Signal;HPM_P1;HPM_P2
2022/10/02 00:01:34;;;;;;;13.05;6.68;;;;;;;18.86;81.25;98356.59;5062627;28;20361;-73
2022/10/02 00:04:00;;;;;;;11.93;6.80;;;;;;;18.57;82.52;98358.47;5079120;28;20057;-74
2022/10/02 00:06:35;;;;;;;16.13;6.50;;;;;;;18.95;82.01;98365.91;5062912;28;20043;-74
2022/10/02 00:09:02;;;;;;;8.52;6.40;;;;;;;18.84;81.62;98364.06;5046516;28;20053;-74
2022/10/02 00:11:45;;;;;;;9.05;5.88;;;;;;;18.79;80.18;98356.72;5062431;28;20050;-74
2022/10/02 00:14:13;;;;;;;9.18;5.82;;;;;;;18.38;80.51;98365.06;5095981;28;20130;-73
2022/10/02 00:16:43;;;;;;;6.47;5.40;;;;;;;18.26;79.82;98373.16;5062606;28;20061;-73
2022/10/02 00:19:10;;;;;;;8.35;5.25;;;;;;;18.11;78.76;98354.00;5078606;28;20355;-74
2022/10/02 00:21:54;;;;;;;7.43;5.45;;;;;;;17.81;77.39;98365.97;5061849;28;20059;-74
2022/10/02 00:24:23;;;;;;;6.32;5.00;;;;;;;18.27;79.68;98366.72;5062657;28;20108;-74
2022/10/02 00:27:00;;;;;;;6.57;4.97;;;;;;;18.61;79.88;98370.38;5078886;28;20047;-73
2022/10/02 00:29:35;;;;;;;8.25;5.32;;;;;;;18.57;79.40;98353.09;5096156;28;20145;-73
2022/10/02 00:32:20;;;;;;;7.75;5.43;;;;;;;17.79;73.02;98376.16;5062399;28;20548;-73
2022/10/02 00:35:19;;;;;;;8.52;6.13;;;;;;;18.21;77.52;98381.09;5061748;28;20040;-73
2022/10/02 00:38:04;;;;;;;10.32;5.50;;;;;;;18.20;79.11;98368.69;5061812;28;20050;-74
2022/10/02 00:40:38;;;;;;;6.38;4.68;;;;;;;18.25;76.13;98360.75;5062004;28;20043;-73
2022/10/02 00:43:16;;;;;;;7.00;5.10;;;;;;;17.94;76.13;98373.78;5079060;28;20573;-74
2022/10/02 00:46:01;;;;;;;7.65;4.82;;;;;;;18.32;75.52;98366.00;5061805;28;20457;-73
2022/10/02 00:48:56;;;;;;;8.32;4.93;;;;;;;18.67;74.16;98376.66;5078332;28;20138;-73
2022/10/02 00:51:53;;;;;;;5.90;4.05;;;;;;;18.28;73.41;98354.09;5079581;28;20043;-73
2022/10/02 00:54:24;;;;;;;6.30;4.20;;;;;;;17.93;74.38;98356.84;5062692;28;20051;-72
2022/10/02 00:57:09;;;;;;;5.78;3.88;;;;;;;18.13;74.96;98369.88;5063326;28;20039;-73
2022/10/02 00:59:44;;;;;;;4.40;3.90;;;;;;;17.91;75.24;98379.63;5080436;28;20076;-73
2022/10/02 01:03:13;;;;;;;6.05;4.07;;;;;;;18.30;74.71;98384.22;5063242;28;20044;-73
2022/10/02 01:05:39;;;;;;;7.25;3.70;;;;;;;17.56;72.42;98376.16;5025895;28;20040;-73
2022/10/02 01:08:06;;;;;;;3.63;2.80;;;;;;;17.59;73.02;98383.72;5064278;28;20438;-73
2022/10/02 01:10:33;;;;;;;9.63;3.50;;;;;;;17.62;69.47;98391.31;5047310;28;20043;-72
2022/10/02 01:12:59;;;;;;;3.53;2.60;;;;;;;17.70;71.26;98389.09;5063852;28;20078;-73
2022/10/02 01:15:34;;;;;;;2.60;2.40;;;;;;;17.87;68.30;98395.41;5046989;28;20046;-73
2022/10/02 01:18:01;;;;;;;6.05;2.80;;;;;;;17.25;68.08;98400.56;5064418;28;20035;-73
2022/10/02 01:21:07;;;;;;;4.43;2.58;;;;;;;17.94;72.11;98389.91;5047419;28;20144;-72
2022/10/02 01:23:48;;;;;;;2.75;2.30;;;;;;;17.46;66.00;98400.03;4965090;28;20053;-72
2022/10/02 01:26:14;;;;;;;2.92;2.22;;;;;;;17.45;71.38;98395.75;5074115;28;20126;-72
2022/10/02 01:28:41;;;;;;;2.70;1.90;;;;;;;17.36;65.75;98381.00;5063775;28;20071;-73
2022/10/02 01:31:13;;;;;;;2.10;1.90;;;;;;;17.57;71.78;98383.13;5047707;28;20061;-73
2022/10/02 01:33:40;;;;;;;3.22;1.90;;;;;;;17.06;68.38;98385.59;5080626;28;20421;-72
2022/10/02 01:36:07;;;;;;;5.68;2.50;;;;;;;17.35;69.88;98387.41;5063711;28;20457;-73
2022/10/02 01:38:33;;;;;;;3.33;2.20;;;;;;;17.40;67.37;98398.25;5079280;28;20189;-72
2022/10/02 01:40:59;;;;;;;2.70;1.83;;;;;;;17.19;69.95;98398.81;5062977;28;20101;-72
2022/10/02 01:43:28;;;;;;;4.03;2.20;;;;;;;17.64;67.73;98400.78;5062593;28;20051;-77
2022/10/02 01:46:03;;;;;;;2.50;2.28;;;;;;;17.82;67.72;98397.16;5062951;28;20043;-72
2022/10/02 01:48:44;;;;;;;3.35;1.90;;;;;;;17.62;65.11;98397.50;5096792;28;20055;-72
2022/10/02 01:51:09;;;;;;;3.38;1.80;;;;;;;17.48;67.76;98393.38;5063230;28;20051;-73
2022/10/02 01:53:56;;;;;;;2.85;1.88;;;;;;;17.61;66.22;98385.13;5080351;28;20040;-72
2022/10/02 01:56:31;;;;;;;2.28;1.98;;;;;;;17.65;63.87;98388.16;5079298;28;20067;-73
2022/10/02 01:59:24;;;;;;;1.67;1.58;;;;;;;17.52;62.80;98381.16;5096933;28;20078;-72
2022/10/02 02:02:06;;;;;;;2.15;1.90;;;;;;;17.12;62.25;98398.09;5080518;28;20503;-72
2022/10/02 02:04:43;;;;;;;4.72;1.75;;;;;;;17.53;63.23;98398.09;5066911;28;20047;-73
2022/10/02 02:07:27;;;;;;;3.33;1.90;;;;;;;17.86;62.38;98392.94;5084278;28;20043;-72
2022/10/02 02:10:11;;;;;;;2.03;1.65;;;;;;;17.90;58.55;98402.16;5066666;28;20050;-74
2022/10/02 02:12:42;;;;;;;1.85;1.65;;;;;;;17.34;59.84;98399.19;5066957;28;20054;-72
2022/10/02 02:15:24;;;;;;;1.73;1.40;;;;;;;17.58;56.73;98384.75;5083603;28;20031;-73
2022/10/02 02:17:55;;;;;;;1.88;1.63;;;;;;;17.29;57.41;98401.75;5051051;28;20051;-72
2022/10/02 02:20:27;;;;;;;4.78;1.52;;;;;;;18.17;56.37;98379.13;5066576;28;20469;-74
2022/10/02 02:22:54;;;;;;;1.90;1.63;;;;;;;17.91;56.19;98385.00;5050324;28;20477;-72
2022/10/02 02:25:26;;;;;;;1.95;1.45;;;;;;;18.02;55.86;98395.72;5067481;28;20043;-72
2022/10/02 02:27:57;;;;;;;3.72;1.63;;;;;;;17.97;54.88;98401.00;5083488;28;20047;-72
2022/10/02 02:30:24;;;;;;;1.50;1.40;;;;;;;17.56;55.65;98403.78;5066662;28;20073;-72
2022/10/02 02:32:56;;;;;;;4.05;1.73;;;;;;;17.60;55.39;98412.22;5067198;28;20050;-72
2022/10/02 02:35:57;;;;;;;3.92;1.50;;;;;;;17.49;56.18;98407.63;5100114;28;20100;-71
2022/10/02 02:38:32;;;;;;;5.00;2.10;;;;;;;17.77;56.04;98410.47;5053177;28;20039;-72
2022/10/02 02:41:12;;;;;;;4.13;1.55;;;;;;;17.75;55.27;98405.31;5065608;28;20035;-72
2022/10/02 02:43:45;;;;;;;3.78;1.80;;;;;;;17.71;54.70;98406.03;5082999;28;20200;-71
2022/10/02 02:46:21;;;;;;;2.33;1.70;;;;;;;17.56;56.65;98397.63;5099286;28;20065;-71
2022/10/02 02:48:58;;;;;;;2.50;1.75;;;;;;;17.74;55.20;98397.50;5082587;28;20484;-71
2022/10/02 02:51:31;;;;;;;6.30;1.52;;;;;;;17.96;55.02;98401.22;5098931;28;20118;-72
2022/10/02 02:54:23;;;;;;;4.32;1.50;;;;;;;17.78;55.41;98396.81;5064899;28;20100;-73
2022/10/02 02:56:50;;;;;;;4.70;1.58;;;;;;;17.67;55.59;98403.00;5064435;28;20068;-71
2022/10/02 02:59:16;;;;;;;2.45;1.63;;;;;;;17.63;54.88;98392.94;5081051;28;20047;-72
2022/10/02 03:01:42;;;;;;;1.50;1.40;;;;;;;17.42;54.61;98409.59;5064958;28;20047;-72
2022/10/02 03:04:13;;;;;;;1.50;1.40;;;;;;;17.89;54.81;98411.28;5048167;28;20108;-72
2022/10/02 03:06:40;;;;;;;2.40;1.40;;;;;;;17.61;54.83;98405.78;5048452;28;20140;-72
2022/10/02 03:09:11;;;;;;;1.77;1.50;;;;;;;17.59;54.84;98413.25;5081455;28;20074;-72
2022/10/02 03:11:52;;;;;;;1.20;1.10;;;;;;;17.80;54.51;98410.00;5081329;28;20050;-72
2022/10/02 03:14:42;;;;;;;1.10;1.00;;;;;;;17.81;54.57;98401.72;5064013;28;20074;-72
2022/10/02 03:17:29;;;;;;;2.03;1.40;;;;;;;17.47;55.14;98407.03;5063801;28;20063;-72
2022/10/02 03:20:13;;;;;;;4.65;1.40;;;;;;;17.62;54.70;98416.28;5063332;28;20058;-72
2022/10/02 03:22:50;;;;;;;3.38;1.58;;;;;;;17.95;54.40;98416.53;5063775;28;20141;-73
2022/10/02 03:25:25;;;;;;;1.13;1.02;;;;;;;18.00;54.15;98419.34;5063026;28;20046;-73
2022/10/02 03:28:17;;;;;;;2.15;1.40;;;;;;;17.45;54.06;98427.94;5079718;28;20467;-73
2022/10/02 03:30:44;;;;;;;2.45;1.20;;;;;;;17.75;54.02;98431.34;5075653;28;20047;-72
2022/10/02 03:33:13;;;;;;;2.58;1.70;;;;;;;18.02;54.15;98425.28;5079918;28;20052;-72
2022/10/02 03:35:39;;;;;;;4.80;1.13;;;;;;;17.93;54.25;98420.50;5062827;28;20438;-73
2022/10/02 03:38:07;;;;;;;1.60;1.25;;;;;;;17.89;54.53;98413.97;5062852;28;20572;-73
2022/10/02 03:40:33;;;;;;;1.35;1.00;;;;;;;17.57;54.29;98421.56;5079303;28;20499;-73
2022/10/02 03:42:59;;;;;;;1.20;1.10;;;;;;;17.71;54.23;98425.63;5062429;28;20040;-72
2022/10/02 03:45:26;;;;;;;1.70;1.00;;;;;;;17.83;53.52;98413.03;5079260;28;20058;-72
2022/10/02 03:47:51;;;;;;;1.35;1.25;;;;;;;17.73;54.21;98415.47;5062516;28;20492;-74
2022/10/02 03:50:17;;;;;;;1.00;0.90;;;;;;;17.85;53.93;98421.66;5063002;28;20051;-72
2022/10/02 03:52:43;;;;;;;6.80;1.00;;;;;;;17.83;53.57;98417.59;5046407;28;20104;-72
2022/10/02 03:55:32;;;;;;;0.80;0.80;;;;;;;18.15;53.34;98416.16;5046233;28;20051;-72
2022/10/02 03:57:58;;;;;;;3.42;1.02;;;;;;;17.91;53.33;98436.06;5046179;28;20167;-73
2022/10/02 04:00:37;;;;;;;4.78;1.05;;;;;;;17.81;53.18;98422.38;5078931;28;20055;-72
2022/10/02 04:03:08;;;;;;;3.10;0.90;;;;;;;17.93;54.06;98425.88;5062627;28;20082;-73
2022/10/02 04:05:45;;;;;;;4.32;1.20;;;;;;;17.99;53.22;98428.44;5045808;28;20047;-72
2022/10/02 04:08:18;;;;;;;2.28;1.00;;;;;;;17.80;53.49;98412.69;5062413;28;20035;-72
2022/10/02 04:11:08;;;;;;;2.28;1.13;;;;;;;17.88;52.69;98431.16;5079213;28;20050;-72
2022/10/02 04:13:37;;;;;;;1.35;1.00;;;;;;;17.96;53.88;98433.44;5064858;28;20048;-72
2022/10/02 04:16:16;;;;;;;3.90;1.05;;;;;;;18.06;53.45;98414.88;5078987;28;20040;-73
2022/10/02 04:19:10;;;;;;;2.55;0.90;;;;;;;18.02;53.60;98429.84;5062561;28;20055;-72
2022/10/02 04:21:48;;;;;;;0.80;0.80;;;;;;;17.99;53.30;98423.06;5062212;28;20139;-72
2022/10/02 04:24:24;;;;;;;0.90;0.90;;;;;;;17.35;53.12;98411.53;5063467;28;20048;-75
2022/10/02 04:27:08;;;;;;;2.63;0.80;;;;;;;17.76;52.68;98409.63;5061474;28;20492;-72
2022/10/02 04:29:46;;;;;;;2.72;0.80;;;;;;;17.78;52.00;98442.47;5062157;28;20047;-72
2022/10/02 04:32:16;;;;;;;3.60;0.80;;;;;;;17.75;52.60;98437.56;5096108;28;20108;-72
2022/10/02 04:34:42;;;;;;;2.17;0.80;;;;;;;17.44;52.14;98453.13;5062230;28;20054;-72
2022/10/02 04:37:26;;;;;;;1.40;0.82;;;;;;;17.28;53.69;98425.09;5062340;28;20124;-72
2022/10/02 04:40:11;;;;;;;4.50;0.95;;;;;;;18.05;52.56;98448.19;5078929;28;20130;-73
2022/10/02 04:42:52;;;;;;;1.60;0.63;;;;;;;17.55;52.05;98455.03;5061693;28;20093;-72
2022/10/02 04:45:30;;;;;;;1.23;1.13;;;;;;;17.59;53.06;98450.84;5079184;28;20496;-72
2022/10/02 04:48:21;;;;;;;0.90;0.70;;;;;;;17.70;52.64;98445.47;5062594;28;20097;-73
2022/10/02 04:51:15;;;;;;;1.17;0.88;;;;;;;17.85;52.52;98437.78;5062876;28;20150;-72
2022/10/02 04:54:08;;;;;;;1.40;0.77;;;;;;;17.71;51.39;98444.41;5055448;28;20256;-72
2022/10/02 04:56:37;;;;;;;1.48;0.70;;;;;;;17.61;52.32;98422.72;5062188;28;20138;-72
2022/10/02 04:59:29;;;;;;;4.22;0.60;;;;;;;17.27;52.46;98441.38;5078221;28;20075;-73
2022/10/02 05:02:12;;;;;;;2.75;0.80;;;;;;;17.58;52.99;98431.22;5096589;28;20035;-72
2022/10/02 05:04:59;;;;;;;2.90;0.90;;;;;;;17.76;52.06;98441.88;5079217;28;20074;-72
2022/10/02 05:07:49;;;;;;;1.60;0.80;;;;;;;17.92;52.88;98435.81;5078945;28;20051;-72
2022/10/02 05:10:41;;;;;;;2.08;0.70;;;;;;;17.70;52.65;98442.78;5063822;28;20138;-73
2022/10/02 05:13:31;;;;;;;2.33;0.90;;;;;;;18.24;52.27;98447.00;5024705;28;20055;-73
2022/10/02 05:16:22;;;;;;;0.75;0.75;;;;;;;18.03;51.89;98428.78;5062997;28;20048;-72
2022/10/02 05:18:56;;;;;;;1.48;0.73;;;;;;;18.04;52.09;98439.31;5064281;28;20130;-74
2022/10/02 05:21:39;;;;;;;3.40;0.80;;;;;;;17.62;52.28;98427.03;5079163;28;20116;-73
2022/10/02 05:24:23;;;;;;;2.15;0.60;;;;;;;18.22;51.16;98449.13;5062153;28;20054;-72
2022/10/02 05:27:13;;;;;;;6.32;0.80;;;;;;;17.90;51.51;98456.72;5062364;28;20094;-71
2022/10/02 05:29:57;;;;;;;0.70;0.70;;;;;;;17.40;51.95;98451.94;5078863;28;20039;-72
2022/10/02 05:32:45;;;;;;;1.45;0.63;;;;;;;17.49;52.78;98434.47;5112889;28;20051;-71
2022/10/02 05:35:44;;;;;;;2.08;0.57;;;;;;;17.85;51.47;98445.84;5062779;28;20494;-72
2022/10/02 05:38:39;;;;;;;0.70;0.70;;;;;;;17.31;50.49;98438.03;5065085;28;20045;-72
2022/10/02 05:41:05;;;;;;;0.82;0.60;;;;;;;16.77;51.14;98430.94;5066479;28;20051;-73
2022/10/02 05:43:40;;;;;;;0.68;0.50;;;;;;;17.37;51.99;98426.38;5067444;28;20050;-72
2022/10/02 05:46:17;;;;;;;2.25;0.73;;;;;;;17.51;51.49;98456.56;5083364;28;20048;-72
2022/10/02 05:48:54;;;;;;;1.00;0.60;;;;;;;17.76;51.53;98446.44;5098425;28;20504;-72
2022/10/02 05:51:42;;;;;;;1.73;0.70;;;;;;;17.86;51.99;98450.19;5064629;28;20067;-72
2022/10/02 05:54:26;;;;;;;0.73;0.73;;;;;;;17.71;51.48;98457.06;5048267;28;20066;-72
2022/10/02 05:56:57;;;;;;;2.05;0.70;;;;;;;17.82;51.35;98446.31;5064735;28;20063;-72
2022/10/02 05:59:50;;;;;;;2.40;0.50;;;;;;;18.06;50.72;98447.13;5064606;28;20044;-79
2022/10/02 06:02:31;;;;;;;0.60;0.60;;;;;;;18.20;51.03;98443.16;5064471;28;20050;-71
2022/10/02 06:05:10;;;;;;;1.30;0.80;;;;;;;18.32;51.50;98443.94;5098248;28;20043;-72
2022/10/02 06:07:36;;;;;;;1.77;0.68;;;;;;;18.02;51.02;98449.47;5048121;28;20138;-71
2022/10/02 06:10:10;;;;;;;2.58;0.60;;;;;;;18.21;49.58;98460.91;5081759;28;20043;-73
2022/10/02 06:12:52;;;;;;;2.25;0.70;;;;;;;17.88;49.36;98461.50;5080975;28;20048;-72
2022/10/02 06:15:23;;;;;;;0.73;0.70;;;;;;;17.35;50.22;98465.22;5047413;28;20031;-71
2022/10/02 06:18:00;;;;;;;5.82;1.00;;;;;;;17.92;50.42;98467.22;5080808;28;20043;-72
2022/10/02 06:20:32;;;;;;;2.42;0.90;;;;;;;17.89;50.48;98468.50;5047698;28;20043;-71
2022/10/02 06:23:00;;;;;;;3.30;1.08;;;;;;;18.04;50.67;98470.72;5064650;28;20075;-71
2022/10/02 06:25:25;;;;;;;0.70;0.52;;;;;;;17.37;49.90;98455.09;5081099;28;20048;-72
2022/10/02 06:27:59;;;;;;;2.05;0.50;;;;;;;18.09;49.81;98478.91;5064324;28;20055;-72
2022/10/02 06:30:25;;;;;;;0.90;0.55;;;;;;;17.95;50.33;98477.50;5064825;28;20047;-79
2022/10/02 06:33:05;;;;;;;5.07;0.52;;;;;;;18.03;49.32;98490.59;5064323;28;20055;-72
2022/10/02 06:35:55;;;;;;;2.05;0.57;;;;;;;17.68;49.71;98481.69;5080816;28;20126;-71
2022/10/02 06:38:34;;;;;;;1.85;0.60;;;;;;;17.70;48.57;98479.56;5080654;28;20043;-72
2022/10/02 06:41:19;;;;;;;2.05;0.47;;;;;;;17.72;49.54;98480.16;5063844;28;20043;-72
2022/10/02 06:44:25;;;;;;;0.40;0.40;;;;;;;17.85;49.42;98483.44;5063913;28;20583;-71
2022/10/02 06:47:14;;;;;;;3.30;0.63;;;;;;;16.97;49.50;98475.47;5078699;28;20548;-71
2022/10/02 06:49:58;;;;;;;1.85;0.50;;;;;;;17.05;49.79;98491.25;5050180;28;20040;-71
2022/10/02 06:52:37;;;;;;;0.60;0.45;;;;;;;17.37;49.53;98458.59;5081219;28;20043;-72
2022/10/02 06:55:34;;;;;;;0.45;0.43;;;;;;;17.70;49.71;98479.56;5063799;28;20043;-73
2022/10/02 06:58:27;;;;;;;1.63;0.70;;;;;;;17.90;48.99;98477.38;5063746;28;20136;-72
2022/10/02 07:01:13;;;;;;;1.75;0.40;;;;;;;18.19;48.95;98474.56;5080453;28;20078;-71
2022/10/02 07:04:20;;;;;;;0.65;0.50;;;;;;;18.48;48.41;98480.91;5097086;28;20055;-72
2022/10/02 07:07:01;;;;;;;0.73;0.47;;;;;;;18.28;47.42;98493.88;5026960;28;20051;-71
2022/10/02 07:09:27;;;;;;;;;;;;;;;18.22;47.98;98494.81;5063752;28;20048;-79
2022/10/02 07:12:03;;;;;;;0.60;0.45;;;;;;;18.23;48.80;98491.88;5080736;28;19942;-71
2022/10/02 07:14:44;;;;;;;1.10;0.50;;;;;;;18.53;48.77;98496.34;5080252;28;20054;-72
2022/10/02 07:17:25;;;;;;;;;;;;;;;17.90;47.14;98512.28;5080048;28;20448;-72
2022/10/02 07:20:24;;;;;;;1.00;0.70;;;;;;;18.10;47.90;98502.03;5046498;28;19948;-73
2022/10/02 07:23:11;;;;;;;1.05;0.70;;;;;;;17.78;48.81;98500.72;5063486;28;20043;-72
2022/10/02 07:25:57;;;;;;;2.65;0.60;;;;;;;18.57;47.32;98501.00;5079411;28;20538;-73
2022/10/02 07:28:39;;;;;;;4.15;2.35;;;;;;;18.79;46.91;98501.19;5063302;28;20047;-72
2022/10/02 07:31:33;;;;;;;1.10;1.00;;;;;;;18.86;47.54;98494.63;5062789;28;20047;-71
2022/10/02 07:34:22;;;;;;;1.20;0.60;;;;;;;18.79;46.09;98507.38;5062756;28;20039;-79
2022/10/02 07:37:09;;;;;;;2.47;0.55;;;;;;;18.83;47.12;98507.72;5079287;28;20134;-72
2022/10/02 07:40:12;;;;;;;1.35;0.77;;;;;;;18.98;46.96;98499.94;5046359;28;20150;-72
2022/10/02 07:43:04;;;;;;;5.00;0.88;;;;;;;19.05;46.23;98509.50;5062635;28;20043;-71
2022/10/02 07:45:38;;;;;;;2.28;1.08;;;;;;;18.91;46.35;98499.28;5062539;28;20491;-71
2022/10/02 07:48:21;;;;;;;0.82;0.60;;;;;;;18.77;45.88;98504.13;5079029;28;20385;-71
2022/10/02 07:51:45;;;;;;;3.50;0.63;;;;;;;18.52;46.41;98503.56;5079452;28;20055;-71
2022/10/02 07:54:24;;;;;;;2.72;0.80;;;;;;;18.71;47.26;98513.13;5079196;28;20393;-72
2022/10/02 07:56:51;;;;;;;0.75;0.60;;;;;;;18.44;47.35;98503.91;5062012;28;20073;-72
2022/10/02 07:59:17;;;;;;;0.90;0.80;;;;;;;18.19;47.84;98506.81;5045687;28;20067;-72
2022/10/02 08:01:45;;;;;;;0.63;0.63;;;;;;;18.12;46.71;98510.69;5045318;28;20141;-71
2022/10/02 08:04:15;;;;;;;2.13;0.80;;;;;;;17.97;46.72;98507.66;5079053;28;20134;-71
2022/10/02 08:06:43;;;;;;;1.48;0.75;;;;;;;17.66;47.66;98519.50;5079068;28;20085;-71
2022/10/02 08:09:19;;;;;;;0.82;0.70;;;;;;;17.63;48.12;98516.47;5079234;28;20054;-71
2022/10/02 08:11:50;;;;;;;1.55;0.55;;;;;;;18.07;46.65;98486.38;5062333;28;20079;-72
2022/10/02 08:14:37;;;;;;;1.67;0.50;;;;;;;18.14;45.38;98527.41;5045895;28;20138;-71
2022/10/02 08:17:09;;;;;;;3.15;0.60;;;;;;;18.35;44.71;98522.25;5062183;28;20039;-74
2022/10/02 08:19:39;;;;;;;1.40;0.50;;;;;;;18.07;45.44;98514.06;5061642;28;20088;-71
2022/10/02 08:22:17;;;;;;;0.75;0.50;;;;;;;18.00;45.17;98509.88;5045027;28;20481;-72
2022/10/02 08:24:46;;;;;;;1.73;0.60;;;;;;;17.81;46.20;98511.00;5061587;28;20054;-73
2022/10/02 08:27:17;;;;;;;1.92;0.60;;;;;;;18.32;45.39;98511.97;5061338;28;20040;-71
2022/10/02 08:29:53;;;;;;;;;;;;;;;18.67;44.46;98528.09;5078450;28;20047;-72
2022/10/02 08:32:21;;;;;;;0.80;0.50;;;;;;;17.75;44.11;98541.47;5045013;28;20365;-72
2022/10/02 08:34:47;;;;;;;3.03;0.43;;;;;;;17.49;45.11;98531.13;5062388;28;20040;-72
2022/10/02 08:37:35;;;;;;;0.93;0.57;;;;;;;17.95;45.56;98536.59;5061611;28;20100;-72
2022/10/02 08:40:22;;;;;;;2.72;1.60;;;;;;;18.28;44.57;98499.25;5078845;28;20446;-72
2022/10/02 08:43:26;;;;;;;3.53;1.25;;;;;;;18.89;43.76;98544.44;5061048;28;20047;-72
2022/10/02 08:46:17;;;;;;;2.00;0.77;;;;;;;19.14;42.87;98532.31;5024067;28;20043;-72
2022/10/02 08:49:00;;;;;;;0.70;0.50;;;;;;;19.60;42.65;98531.34;5061230;28;20039;-72
2022/10/02 08:51:45;;;;;;;3.10;0.50;;;;;;;21.93;38.46;98533.19;5077969;28;20138;-72
2022/10/02 08:54:49;;;;;;;0.40;0.40;;;;;;;23.89;35.70;98498.94;5061368;28;20050;-73
2022/10/02 08:57:55;;;;;;;1.08;0.70;;;;;;;26.74;28.91;98480.34;4962441;28;20197;-73
2022/10/02 09:00:58;;;;;;;1.02;0.50;;;;;;;26.41;28.55;98500.28;4962023;28;20042;-73
2022/10/02 09:04:02;;;;;;;0.85;0.60;;;;;;;27.33;28.44;98497.06;4977346;28;20054;-73
2022/10/02 09:07:06;;;;;;;0.90;0.63;;;;;;;25.93;27.53;98488.44;4961726;28;20056;-73
2022/10/02 09:10:11;;;;;;;3.88;0.60;;;;;;;25.97;29.92;98499.56;5063704;28;20079;-73
2022/10/02 09:12:57;;;;;;;2.55;1.23;;;;;;;25.87;29.63;98503.19;5062887;28;20047;-73
2022/10/02 09:15:43;;;;;;;1.70;0.90;;;;;;;25.36;30.55;98460.28;5064892;28;20051;-72
2022/10/02 09:18:37;;;;;;;1.20;0.90;;;;;;;24.51;30.88;98459.53;5099091;28;20381;-72
2022/10/02 09:21:16;;;;;;;0.60;0.60;;;;;;;23.41;31.24;98475.03;5051795;28;20043;-73
2022/10/02 09:23:57;;;;;;;0.60;0.60;;;;;;;23.43;33.84;98457.44;5065274;28;20046;-73
2022/10/02 09:26:25;;;;;;;;;;;;;;;22.90;33.69;98472.16;5066354;28;20115;-74
2022/10/02 09:29:08;;;;;;;1.30;0.70;;;;;;;22.36;34.68;98478.06;5066053;28;20334;-73
2022/10/02 09:32:14;;;;;;;1.88;0.80;;;;;;;21.94;35.73;98464.53;5065835;28;20048;-72
2022/10/02 09:34:46;;;;;;;2.05;0.50;;;;;;;21.42;36.47;98467.03;5036825;28;20047;-72
2022/10/02 09:37:40;;;;;;;0.70;0.50;;;;;;;21.55;34.64;98471.19;5064886;28;20166;-72
2022/10/02 09:40:25;;;;;;;3.45;3.05;;;;;;;20.67;36.26;98495.84;5020146;28;20043;-75
2022/10/02 09:43:09;;;;;;;5.53;2.30;;;;;;;20.73;37.08;98475.13;5064890;28;20048;-73
2022/10/02 09:46:00;;;;;;;4.20;2.22;;;;;;;20.68;37.19;98481.25;5065312;28;20044;-73
2022/10/02 09:48:58;;;;;;;3.10;1.20;;;;;;;20.94;37.37;98480.50;5082203;28;20055;-73
2022/10/02 09:52:08;;;;;;;4.40;2.83;;;;;;;21.37;36.16;98485.88;5065442;28;20444;-72
2022/10/02 09:54:49;;;;;;;1.45;1.08;;;;;;;21.48;34.53;98470.59;5064561;28;20036;-73
2022/10/02 09:57:34;;;;;;;;;;;;;;;22.81;33.03;98492.69;5064867;28;20079;-73
2022/10/02 10:00:25;;;;;;;3.55;2.47;;;;;;;23.85;30.82;98481.59;5081024;28;19924;-72
2022/10/02 10:03:06;;;;;;;;;;;;;;;23.76;30.78;98491.31;5081646;28;20043;-73
2022/10/02 10:05:38;;;;;;;;;;;;;;;24.20;31.37;98484.31;5081368;28;19920;-73
2022/10/02 10:08:33;;;;;;;1.35;0.70;;;;;;;23.57;30.55;98458.50;5064151;28;19920;-73
2022/10/02 10:11:33;;;;;;;4.07;0.73;;;;;;;24.55;30.50;98476.91;5052847;28;20051;-74
2022/10/02 10:13:59;;;;;;;1.05;0.70;;;;;;;26.06;27.88;98463.31;5048906;28;20075;-73
2022/10/02 10:16:43;;;;;;;0.60;0.60;;;;;;;29.17;25.34;98449.59;5080716;28;20062;-73
2022/10/02 10:19:09;;;;;;;2.10;0.57;;;;;;;30.86;23.29;98465.63;5063911;28;20497;-74
2022/10/02 10:22:05;;;;;;;2.47;0.60;;;;;;;31.19;21.52;98471.53;5057273;28;20084;-74
2022/10/02 10:24:34;;;;;;;0.50;0.50;;;;;;;30.55;22.23;98467.56;5056871;28;20050;-74
2022/10/02 10:27:28;;;;;;;2.95;0.70;;;;;;;31.88;20.72;98458.69;5057010;28;20100;-73
2022/10/02 10:30:23;;;;;;;1.20;0.60;;;;;;;32.04;20.16;98466.13;5073948;28;20057;-73
2022/10/02 10:33:00;;;;;;;1.13;0.55;;;;;;;31.47;19.84;98431.72;5022136;28;20044;-74
2022/10/02 10:36:02;;;;;;;2.58;0.90;;;;;;;31.45;19.81;98453.19;5073698;28;20052;-73
2022/10/02 10:38:59;;;;;;;1.92;0.60;;;;;;;31.15;19.95;98454.09;5057594;28;20395;-73
2022/10/02 10:41:28;;;;;;;0.90;0.88;;;;;;;30.60;21.03;98423.59;5040714;28;20058;-78
2022/10/02 10:44:13;;;;;;;2.97;0.73;;;;;;;30.94;20.76;98425.66;5056900;28;20052;-73
2022/10/02 10:47:07;;;;;;;1.17;0.45;;;;;;;33.66;18.38;98437.06;5073525;28;20490;-78
2022/10/02 10:49:41;;;;;;;1.15;0.70;;;;;;;35.42;16.83;98446.69;5056729;28;20045;-73
2022/10/02 10:52:16;;;;;;;3.05;0.90;;;;;;;36.10;17.12;98437.25;5056899;28;20036;-74
2022/10/02 10:55:18;;;;;;;9.38;7.93;;;;;;;37.67;15.70;98442.38;5023825;28;20398;-74
2022/10/02 10:57:59;;;;;;;2.58;0.80;;;;;;;38.67;14.26;98435.63;5040145;28;20098;-74
2022/10/02 11:00:28;;;;;;;1.50;0.65;;;;;;;37.19;15.07;98402.09;5056459;28;20044;-74
2022/10/02 11:03:26;;;;;;;1.65;0.75;;;;;;;35.58;16.51;98425.50;5040466;28;20378;-74
2022/10/02 11:06:01;;;;;;;2.10;0.90;;;;;;;33.95;17.41;98418.50;5073104;28;20487;-74
2022/10/02 11:08:59;;;;;;;0.60;0.60;;;;;;;33.46;18.57;98402.88;5056079;28;20045;-74
2022/10/02 11:11:34;;;;;;;1.63;0.60;;;;;;;35.51;17.44;98406.75;5034415;28;20044;-74
2022/10/02 11:14:20;;;;;;;1.15;0.60;;;;;;;36.80;15.16;98417.00;5056624;28;20126;-74
2022/10/02 11:17:23;;;;;;;1.00;0.70;;;;;;;37.95;15.04;98415.22;5039696;28;20571;-74
2022/10/02 11:20:07;;;;;;;1.70;0.60;;;;;;;38.17;14.25;98419.22;5056659;28;20506;-74
2022/10/02 11:23:18;;;;;;;0.70;0.60;;;;;;;38.29;13.61;98411.53;5059340;28;20073;-74
2022/10/02 11:25:53;;;;;;;2.45;0.93;;;;;;;35.82;14.90;98399.69;5055661;28;20478;-74
2022/10/02 11:28:25;;;;;;;1.58;1.13;;;;;;;32.63;16.83;98399.19;5059683;28;20070;-74
2022/10/02 11:31:11;;;;;;;2.95;1.13;;;;;;;30.57;19.30;98401.47;5059814;28;20040;-74
2022/10/02 11:33:56;;;;;;;3.47;1.13;;;;;;;28.94;20.97;98391.28;5059637;28;20449;-73
2022/10/02 11:36:21;;;;;;;4.32;1.33;;;;;;;28.03;22.29;98380.56;5058852;28;20040;-74
2022/10/02 11:39:10;;;;;;;1.67;0.82;;;;;;;28.11;22.31;98381.78;5059519;28;20043;-73
2022/10/02 11:41:58;;;;;;;1.83;1.30;;;;;;;27.81;22.88;98392.13;5059275;28;20044;-73
2022/10/02 11:44:27;;;;;;;2.47;1.00;;;;;;;27.23;23.72;98362.78;5059501;28;20109;-73
2022/10/02 11:47:31;;;;;;;1.73;1.40;;;;;;;26.95;24.17;98389.09;5059854;28;20055;-73
2022/10/02 11:50:22;;;;;;;2.83;1.73;;;;;;;26.62;24.94;98381.06;5030283;28;20059;-74
2022/10/02 11:53:10;;;;;;;2.05;1.20;;;;;;;26.40;25.38;98376.16;5060160;28;20036;-73
2022/10/02 11:55:56;;;;;;;2.42;1.60;;;;;;;26.47;25.46;98373.88;5059663;28;20139;-73
2022/10/02 11:58:55;;;;;;;2.28;1.35;;;;;;;26.13;25.83;98376.72;5059272;28;20044;-73
2022/10/02 12:01:41;;;;;;;5.97;1.35;;;;;;;25.59;26.50;98350.81;5076155;28;20480;-73
2022/10/02 12:04:10;;;;;;;5.72;4.45;;;;;;;25.49;27.45;98359.09;5075681;28;20040;-73
2022/10/02 12:07:11;;;;;;;5.40;1.60;;;;;;;25.57;27.35;98367.44;5058395;28;20382;-73
2022/10/02 12:09:59;;;;;;;4.57;1.58;;;;;;;25.62;27.15;98364.66;5058626;28;20047;-72
2022/10/02 12:12:56;;;;;;;2.97;1.25;;;;;;;25.14;27.67;98359.31;5058233;28;20048;-73
2022/10/02 12:15:43;;;;;;;4.47;1.92;;;;;;;24.86;28.54;98358.94;5058321;28;20086;-73
2022/10/02 12:18:31;;;;;;;5.05;2.00;;;;;;;24.75;28.56;98351.97;5059065;28;20474;-73
2022/10/02 12:27:16;;;;;;;2.63;1.63;;;;;;;23.71;29.68;98307.00;5078084;28;20063;-73
2022/10/02 12:30:05;;;;;;;2.83;1.60;;;;;;;23.42;30.31;98331.13;5078645;28;20086;-73
2022/10/02 12:32:39;;;;;;;3.58;1.55;;;;;;;22.71;31.51;98330.22;5095337;28;20049;-73
2022/10/02 12:35:26;;;;;;;5.72;2.00;;;;;;;22.99;31.91;98337.88;5078625;28;20515;-73
2022/10/02 12:38:18;;;;;;;4.70;1.70;;;;;;;22.91;31.70;98319.44;5077951;28;20040;-72
2022/10/02 12:40:44;;;;;;;5.70;2.55;;;;;;;22.59;32.05;98304.47;5061685;28;20195;-73
2022/10/02 12:43:54;;;;;;;2.97;1.95;;;;;;;23.15;31.49;98300.78;5077816;28;20137;-73
2022/10/02 12:46:39;;;;;;;6.55;3.85;;;;;;;23.13;31.90;98327.31;5035807;28;20135;-73